sensor_id;sensor_type;location;lat;lon;timestamp;P1;durP1;ratioP1;P2;durP2;ratioP2
74328;SDS011;62745;51.060;13.786;2024-01-11T00:00:35;16.90;;;7.07;;
74328;SDS011;62745;51.060;13.786;2024-01-11T00:03:00;21.25;;;8.82;;
74328;SDS011;62745;51.060;13.786;2024-01-11T00:05:26;23.13;;;8.32;;
74328;SDS011;62745;51.060;13.786;2024-01-11T00:07:51;16.52;;;8.07;;
74328;SDS011;62745;51.060;13.786;2024-01-11T00:10:17;21.37;;;9.80;;
74328;SDS011;62745;51.060;13.786;2024-01-11T00:12:42;19.73;;;7.90;;
74328;SDS011;62745;51.060;13.786;2024-01-11T00:15:07;21.27;;;8.53;;
74328;SDS011;62745;51.060;13.786;2024-01-11T00:17:33;21.15;;;8.68;;
74328;SDS011;62745;51.060;13.786;2024-01-11T00:19:58;16.57;;;7.37;;
74328;SDS011;62745;51.060;13.786;2024-01-11T00:22:23;18.33;;;9.40;;
74328;SDS011;62745;51.060;13.786;2024-01-11T00:24:49;19.73;;;8.30;;
74328;SDS011;62745;51.060;13.786;2024-01-11T00:27:14;23.20;;;8.23;;
74328;SDS011;62745;51.060;13.786;2024-01-11T00:29:39;20.15;;;8.75;;
74328;SDS011;62745;51.060;13.786;2024-01-11T00:32:05;15.10;;;6.67;;
74328;SDS011;62745;51.060;13.786;2024-01-11T00:34:30;15.13;;;8.98;;
74328;SDS011;62745;51.060;13.786;2024-01-11T00:36:55;21.40;;;9.27;;
74328;SDS011;62745;51.060;13.786;2024-01-11T00:39:21;21.73;;;9.10;;
74328;SDS011;62745;51.060;13.786;2024-01-11T00:41:46;19.00;;;9.03;;
74328;SDS011;62745;51.060;13.786;2024-01-11T00:44:11;18.98;;;8.77;;
74328;SDS011;62745;51.060;13.786;2024-01-11T00:46:37;22.93;;;9.53;;
74328;SDS011;62745;51.060;13.786;2024-01-11T00:49:03;23.40;;;9.05;;
74328;SDS011;62745;51.060;13.786;2024-01-11T00:51:28;20.38;;;9.48;;
74328;SDS011;62745;51.060;13.786;2024-01-11T00:53:54;21.93;;;8.67;;
74328;SDS011;62745;51.060;13.786;2024-01-11T00:56:19;23.17;;;11.20;;
74328;SDS011;62745;51.060;13.786;2024-01-11T00:58:45;24.92;;;9.10;;
74328;SDS011;62745;51.060;13.786;2024-01-11T01:01:11;24.75;;;9.50;;
74328;SDS011;62745;51.060;13.786;2024-01-11T01:03:37;27.13;;;10.02;;
74328;SDS011;62745;51.060;13.786;2024-01-11T01:06:02;19.05;;;9.05;;
74328;SDS011;62745;51.060;13.786;2024-01-11T01:08:28;23.23;;;9.57;;
74328;SDS011;62745;51.060;13.786;2024-01-11T01:10:53;20.60;;;9.60;;
74328;SDS011;62745;51.060;13.786;2024-01-11T01:13:19;21.20;;;10.23;;
74328;SDS011;62745;51.060;13.786;2024-01-11T01:15:44;18.42;;;8.25;;
74328;SDS011;62745;51.060;13.786;2024-01-11T01:18:09;20.35;;;8.02;;
74328;SDS011;62745;51.060;13.786;2024-01-11T01:20:35;29.15;;;12.50;;
74328;SDS011;62745;51.060;13.786;2024-01-11T01:23:00;30.23;;;11.93;;
74328;SDS011;62745;51.060;13.786;2024-01-11T01:25:26;28.13;;;11.43;;
74328;SDS011;62745;51.060;13.786;2024-01-11T01:27:51;24.67;;;11.90;;
74328;SDS011;62745;51.060;13.786;2024-01-11T01:30:17;25.00;;;9.90;;
74328;SDS011;62745;51.060;13.786;2024-01-11T01:32:42;19.43;;;8.97;;
74328;SDS011;62745;51.060;13.786;2024-01-11T01:35:07;22.80;;;8.30;;
74328;SDS011;62745;51.060;13.786;2024-01-11T01:37:33;16.15;;;8.00;;
74328;SDS011;62745;51.060;13.786;2024-01-11T01:39:58;19.20;;;9.37;;
74328;SDS011;62745;51.060;13.786;2024-01-11T01:42:23;19.90;;;7.33;;
74328;SDS011;62745;51.060;13.786;2024-01-11T01:44:49;25.23;;;8.07;;
74328;SDS011;62745;51.060;13.786;2024-01-11T01:47:14;20.40;;;9.80;;
74328;SDS011;62745;51.060;13.786;2024-01-11T01:49:42;16.45;;;8.13;;
74328;SDS011;62745;51.060;13.786;2024-01-11T01:52:07;23.80;;;9.23;;
74328;SDS011;62745;51.060;13.786;2024-01-11T01:54:33;20.42;;;9.40;;
74328;SDS011;62745;51.060;13.786;2024-01-11T01:56:59;20.90;;;9.02;;
74328;SDS011;62745;51.060;13.786;2024-01-11T01:59:24;19.60;;;7.85;;
74328;SDS011;62745;51.060;13.786;2024-01-11T02:01:51;23.70;;;9.57;;
74328;SDS011;62745;51.060;13.786;2024-01-11T02:04:17;22.05;;;9.45;;
74328;SDS011;62745;51.060;13.786;2024-01-11T02:06:44;25.17;;;10.32;;
74328;SDS011;62745;51.060;13.786;2024-01-11T02:09:11;16.23;;;8.25;;
74328;SDS011;62745;51.060;13.786;2024-01-11T02:11:38;25.00;;;8.65;;
74328;SDS011;62745;51.060;13.786;2024-01-11T02:14:04;22.85;;;9.00;;
74328;SDS011;62745;51.060;13.786;2024-01-11T02:16:30;18.20;;;8.13;;
74328;SDS011;62745;51.060;13.786;2024-01-11T02:18:55;14.80;;;7.03;;
74328;SDS011;62745;51.060;13.786;2024-01-11T02:21:21;20.13;;;8.52;;
74328;SDS011;62745;51.060;13.786;2024-01-11T02:26:30;21.55;;;6.65;;
74328;SDS011;62745;51.060;13.786;2024-01-11T02:28:56;17.55;;;7.80;;
74328;SDS011;62745;51.060;13.786;2024-01-11T02:31:21;18.27;;;8.02;;
74328;SDS011;62745;51.060;13.786;2024-01-11T02:33:47;19.30;;;7.28;;
74328;SDS011;62745;51.060;13.786;2024-01-11T02:36:12;17.30;;;8.18;;
74328;SDS011;62745;51.060;13.786;2024-01-11T02:38:38;19.70;;;8.25;;
74328;SDS011;62745;51.060;13.786;2024-01-11T02:41:06;19.95;;;8.75;;
74328;SDS011;62745;51.060;13.786;2024-01-11T02:43:32;18.40;;;9.00;;
74328;SDS011;62745;51.060;13.786;2024-01-11T02:45:59;25.00;;;9.55;;
74328;SDS011;62745;51.060;13.786;2024-01-11T02:48:28;15.40;;;6.97;;
74328;SDS011;62745;51.060;13.786;2024-01-11T02:50:54;19.73;;;9.10;;
74328;SDS011;62745;51.060;13.786;2024-01-11T02:53:20;17.45;;;9.15;;
74328;SDS011;62745;51.060;13.786;2024-01-11T02:55:46;16.40;;;8.50;;
74328;SDS011;62745;51.060;13.786;2024-01-11T02:58:11;21.40;;;9.50;;
74328;SDS011;62745;51.060;13.786;2024-01-11T03:00:36;22.90;;;10.73;;
74328;SDS011;62745;51.060;13.786;2024-01-11T03:03:02;24.50;;;10.20;;
74328;SDS011;62745;51.060;13.786;2024-01-11T03:05:27;22.17;;;8.55;;
74328;SDS011;62745;51.060;13.786;2024-01-11T03:07:53;19.02;;;9.73;;
74328;SDS011;62745;51.060;13.786;2024-01-11T03:10:18;15.27;;;7.87;;
74328;SDS011;62745;51.060;13.786;2024-01-11T03:12:43;19.30;;;9.73;;
74328;SDS011;62745;51.060;13.786;2024-01-11T03:15:09;19.83;;;9.10;;
74328;SDS011;62745;51.060;13.786;2024-01-11T03:17:34;20.03;;;8.80;;
74328;SDS011;62745;51.060;13.786;2024-01-11T03:20:00;22.77;;;8.73;;
74328;SDS011;62745;51.060;13.786;2024-01-11T03:22:25;18.93;;;10.27;;
74328;SDS011;62745;51.060;13.786;2024-01-11T03:24:51;17.23;;;7.68;;
74328;SDS011;62745;51.060;13.786;2024-01-11T03:27:16;25.27;;;8.48;;
74328;SDS011;62745;51.060;13.786;2024-01-11T03:29:41;17.27;;;8.50;;
74328;SDS011;62745;51.060;13.786;2024-01-11T03:32:07;14.93;;;7.77;;
74328;SDS011;62745;51.060;13.786;2024-01-11T03:34:32;21.13;;;9.37;;
74328;SDS011;62745;51.060;13.786;2024-01-11T03:36:57;18.80;;;7.90;;
74328;SDS011;62745;51.060;13.786;2024-01-11T03:39:23;23.40;;;9.70;;
74328;SDS011;62745;51.060;13.786;2024-01-11T03:41:50;20.88;;;7.97;;
74328;SDS011;62745;51.060;13.786;2024-01-11T03:44:15;34.17;;;12.80;;
74328;SDS011;62745;51.060;13.786;2024-01-11T03:46:40;28.70;;;10.63;;
74328;SDS011;62745;51.060;13.786;2024-01-11T03:49:06;21.77;;;9.60;;
74328;SDS011;62745;51.060;13.786;2024-01-11T03:51:32;19.80;;;9.20;;
74328;SDS011;62745;51.060;13.786;2024-01-11T03:53:58;19.17;;;8.68;;
74328;SDS011;62745;51.060;13.786;2024-01-11T03:56:23;17.00;;;7.13;;
74328;SDS011;62745;51.060;13.786;2024-01-11T03:58:48;17.77;;;7.17;;
74328;SDS011;62745;51.060;13.786;2024-01-11T04:01:14;13.23;;;6.43;;
74328;SDS011;62745;51.060;13.786;2024-01-11T04:03:39;12.27;;;6.53;;
74328;SDS011;62745;51.060;13.786;2024-01-11T04:06:06;19.92;;;8.57;;
74328;SDS011;62745;51.060;13.786;2024-01-11T04:08:32;14.80;;;6.80;;
74328;SDS011;62745;51.060;13.786;2024-01-11T04:10:57;19.67;;;8.80;;
74328;SDS011;62745;51.060;13.786;2024-01-11T04:13:22;13.93;;;7.60;;
74328;SDS011;62745;51.060;13.786;2024-01-11T04:15:47;21.10;;;8.03;;
74328;SDS011;62745;51.060;13.786;2024-01-11T04:18:13;20.73;;;8.90;;
74328;SDS011;62745;51.060;13.786;2024-01-11T04:20:38;13.02;;;6.07;;
74328;SDS011;62745;51.060;13.786;2024-01-11T04:23:04;16.37;;;7.57;;
74328;SDS011;62745;51.060;13.786;2024-01-11T04:25:29;21.60;;;9.30;;
74328;SDS011;62745;51.060;13.786;2024-01-11T04:27:54;15.40;;;8.40;;
74328;SDS011;62745;51.060;13.786;2024-01-11T04:30:20;16.20;;;7.23;;
74328;SDS011;62745;51.060;13.786;2024-01-11T04:32:45;10.88;;;6.03;;
74328;SDS011;62745;51.060;13.786;2024-01-11T04:35:10;17.30;;;7.20;;
74328;SDS011;62745;51.060;13.786;2024-01-11T04:37:36;17.13;;;7.30;;
74328;SDS011;62745;51.060;13.786;2024-01-11T04:40:01;12.75;;;6.25;;
74328;SDS011;62745;51.060;13.786;2024-01-11T04:42:28;16.30;;;6.80;;
74328;SDS011;62745;51.060;13.786;2024-01-11T04:44:53;14.38;;;7.57;;
74328;SDS011;62745;51.060;13.786;2024-01-11T04:47:19;12.35;;;5.93;;
74328;SDS011;62745;51.060;13.786;2024-01-11T04:49:44;16.17;;;6.68;;
74328;SDS011;62745;51.060;13.786;2024-01-11T04:52:10;16.17;;;7.25;;
74328;SDS011;62745;51.060;13.786;2024-01-11T04:54:35;17.52;;;7.80;;
74328;SDS011;62745;51.060;13.786;2024-01-11T04:57:01;14.02;;;6.07;;
74328;SDS011;62745;51.060;13.786;2024-01-11T04:59:26;19.48;;;7.15;;
74328;SDS011;62745;51.060;13.786;2024-01-11T05:01:52;14.33;;;7.17;;
74328;SDS011;62745;51.060;13.786;2024-01-11T05:04:17;20.92;;;7.90;;
74328;SDS011;62745;51.060;13.786;2024-01-11T05:06:42;12.03;;;6.77;;
74328;SDS011;62745;51.060;13.786;2024-01-11T05:09:08;17.90;;;8.07;;
74328;SDS011;62745;51.060;13.786;2024-01-11T05:11:33;10.73;;;5.63;;
74328;SDS011;62745;51.060;13.786;2024-01-11T05:13:58;12.57;;;6.20;;
74328;SDS011;62745;51.060;13.786;2024-01-11T05:16:24;14.97;;;6.13;;
74328;SDS011;62745;51.060;13.786;2024-01-11T05:18:51;16.20;;;6.07;;
74328;SDS011;62745;51.060;13.786;2024-01-11T05:21:17;11.40;;;6.15;;
74328;SDS011;62745;51.060;13.786;2024-01-11T05:23:43;15.38;;;7.72;;
74328;SDS011;62745;51.060;13.786;2024-01-11T05:26:09;15.73;;;8.43;;
74328;SDS011;62745;51.060;13.786;2024-01-11T05:28:34;15.48;;;7.97;;
74328;SDS011;62745;51.060;13.786;2024-01-11T05:31:00;14.40;;;7.27;;
74328;SDS011;62745;51.060;13.786;2024-01-11T05:33:25;12.70;;;6.82;;
74328;SDS011;62745;51.060;13.786;2024-01-11T05:35:50;16.30;;;7.77;;
74328;SDS011;62745;51.060;13.786;2024-01-11T05:38:17;14.02;;;7.35;;
74328;SDS011;62745;51.060;13.786;2024-01-11T05:40:42;10.90;;;5.37;;
74328;SDS011;62745;51.060;13.786;2024-01-11T05:43:07;12.48;;;6.72;;
74328;SDS011;62745;51.060;13.786;2024-01-11T05:45:32;13.27;;;6.17;;
74328;SDS011;62745;51.060;13.786;2024-01-11T05:47:58;15.55;;;7.60;;
74328;SDS011;62745;51.060;13.786;2024-01-11T05:50:24;16.08;;;7.10;;
74328;SDS011;62745;51.060;13.786;2024-01-11T05:52:50;17.08;;;8.73;;
74328;SDS011;62745;51.060;13.786;2024-01-11T05:55:17;17.33;;;7.95;;
74328;SDS011;62745;51.060;13.786;2024-01-11T05:57:42;13.50;;;6.93;;
74328;SDS011;62745;51.060;13.786;2024-01-11T06:00:07;12.32;;;6.22;;
74328;SDS011;62745;51.060;13.786;2024-01-11T06:02:33;16.00;;;6.80;;
74328;SDS011;62745;51.060;13.786;2024-01-11T06:05:01;13.00;;;6.70;;
74328;SDS011;62745;51.060;13.786;2024-01-11T06:07:26;19.42;;;7.57;;
74328;SDS011;62745;51.060;13.786;2024-01-11T06:09:52;18.23;;;7.65;;
74328;SDS011;62745;51.060;13.786;2024-01-11T06:12:18;13.87;;;7.27;;
74328;SDS011;62745;51.060;13.786;2024-01-11T06:14:43;19.67;;;7.63;;
74328;SDS011;62745;51.060;13.786;2024-01-11T06:17:08;15.17;;;7.97;;
74328;SDS011;62745;51.060;13.786;2024-01-11T06:19:36;15.02;;;7.15;;
74328;SDS011;62745;51.060;13.786;2024-01-11T06:22:01;17.17;;;7.05;;
74328;SDS011;62745;51.060;13.786;2024-01-11T06:24:26;18.20;;;8.43;;
74328;SDS011;62745;51.060;13.786;2024-01-11T06:26:52;16.13;;;6.60;;
74328;SDS011;62745;51.060;13.786;2024-01-11T06:29:17;15.37;;;7.27;;
74328;SDS011;62745;51.060;13.786;2024-01-11T06:31:42;14.33;;;7.00;;
74328;SDS011;62745;51.060;13.786;2024-01-11T06:34:07;18.33;;;7.50;;
74328;SDS011;62745;51.060;13.786;2024-01-11T06:36:33;16.40;;;7.20;;
74328;SDS011;62745;51.060;13.786;2024-01-11T06:38:58;17.10;;;7.60;;
74328;SDS011;62745;51.060;13.786;2024-01-11T06:41:24;16.80;;;7.80;;
74328;SDS011;62745;51.060;13.786;2024-01-11T06:43:49;19.20;;;8.47;;
74328;SDS011;62745;51.060;13.786;2024-01-11T06:46:18;17.03;;;7.50;;
74328;SDS011;62745;51.060;13.786;2024-01-11T06:51:12;14.23;;;6.67;;
74328;SDS011;62745;51.060;13.786;2024-01-11T06:53:39;17.92;;;8.05;;
74328;SDS011;62745;51.060;13.786;2024-01-11T06:56:12;17.83;;;7.87;;
74328;SDS011;62745;51.060;13.786;2024-01-11T06:58:39;17.00;;;6.95;;
74328;SDS011;62745;51.060;13.786;2024-01-11T07:01:04;16.40;;;7.30;;
74328;SDS011;62745;51.060;13.786;2024-01-11T07:03:30;18.50;;;7.43;;
74328;SDS011;62745;51.060;13.786;2024-01-11T07:05:55;21.58;;;8.32;;
74328;SDS011;62745;51.060;13.786;2024-01-11T07:08:20;15.00;;;6.93;;
74328;SDS011;62745;51.060;13.786;2024-01-11T07:10:46;22.15;;;8.30;;
74328;SDS011;62745;51.060;13.786;2024-01-11T07:13:12;17.93;;;6.93;;
74328;SDS011;62745;51.060;13.786;2024-01-11T07:15:40;18.48;;;8.05;;
74328;SDS011;62745;51.060;13.786;2024-01-11T07:18:05;17.43;;;8.37;;
74328;SDS011;62745;51.060;13.786;2024-01-11T07:20:30;18.95;;;8.15;;
74328;SDS011;62745;51.060;13.786;2024-01-11T07:22:55;13.17;;;6.20;;
74328;SDS011;62745;51.060;13.786;2024-01-11T07:25:21;17.47;;;7.63;;
74328;SDS011;62745;51.060;13.786;2024-01-11T07:27:46;16.93;;;7.77;;
74328;SDS011;62745;51.060;13.786;2024-01-11T07:30:11;14.00;;;6.57;;
74328;SDS011;62745;51.060;13.786;2024-01-11T07:32:37;16.02;;;7.35;;
74328;SDS011;62745;51.060;13.786;2024-01-11T07:35:03;17.63;;;7.35;;
74328;SDS011;62745;51.060;13.786;2024-01-11T07:37:28;18.35;;;8.80;;
74328;SDS011;62745;51.060;13.786;2024-01-11T07:39:53;16.03;;;7.67;;
74328;SDS011;62745;51.060;13.786;2024-01-11T07:42:19;15.97;;;7.37;;
74328;SDS011;62745;51.060;13.786;2024-01-11T07:44:44;19.98;;;8.55;;
74328;SDS011;62745;51.060;13.786;2024-01-11T07:47:09;20.50;;;9.77;;
74328;SDS011;62745;51.060;13.786;2024-01-11T07:49:35;16.57;;;8.10;;
74328;SDS011;62745;51.060;13.786;2024-01-11T07:52:00;19.48;;;8.30;;
74328;SDS011;62745;51.060;13.786;2024-01-11T07:54:25;16.97;;;7.30;;
74328;SDS011;62745;51.060;13.786;2024-01-11T07:56:51;23.97;;;8.73;;
74328;SDS011;62745;51.060;13.786;2024-01-11T07:59:16;19.73;;;7.43;;
74328;SDS011;62745;51.060;13.786;2024-01-11T08:01:42;18.77;;;7.47;;
74328;SDS011;62745;51.060;13.786;2024-01-11T08:04:07;19.08;;;7.72;;
74328;SDS011;62745;51.060;13.786;2024-01-11T08:06:33;18.98;;;8.23;;
74328;SDS011;62745;51.060;13.786;2024-01-11T08:08:59;17.67;;;7.70;;
74328;SDS011;62745;51.060;13.786;2024-01-11T08:11:24;22.08;;;10.13;;
74328;SDS011;62745;51.060;13.786;2024-01-11T08:13:49;18.90;;;7.90;;
74328;SDS011;62745;51.060;13.786;2024-01-11T08:16:15;18.77;;;7.13;;
74328;SDS011;62745;51.060;13.786;2024-01-11T08:18:42;14.65;;;7.63;;
74328;SDS011;62745;51.060;13.786;2024-01-11T08:21:09;19.13;;;7.68;;
74328;SDS011;62745;51.060;13.786;2024-01-11T08:23:35;16.83;;;7.90;;
74328;SDS011;62745;51.060;13.786;2024-01-11T08:26:02;24.98;;;8.02;;
74328;SDS011;62745;51.060;13.786;2024-01-11T08:28:28;23.10;;;8.15;;
74328;SDS011;62745;51.060;13.786;2024-01-11T08:30:53;15.35;;;7.13;;
74328;SDS011;62745;51.060;13.786;2024-01-11T08:33:19;22.20;;;8.07;;
74328;SDS011;62745;51.060;13.786;2024-01-11T08:35:44;23.17;;;9.10;;
74328;SDS011;62745;51.060;13.786;2024-01-11T08:38:09;20.83;;;9.97;;
74328;SDS011;62745;51.060;13.786;2024-01-11T08:40:34;16.80;;;7.30;;
74328;SDS011;62745;51.060;13.786;2024-01-11T08:43:00;17.30;;;7.85;;
74328;SDS011;62745;51.060;13.786;2024-01-11T08:45:26;20.50;;;8.40;;
74328;SDS011;62745;51.060;13.786;2024-01-11T08:47:51;22.37;;;8.33;;
74328;SDS011;62745;51.060;13.786;2024-01-11T08:50:16;19.98;;;10.07;;
74328;SDS011;62745;51.060;13.786;2024-01-11T08:52:42;19.05;;;9.02;;
74328;SDS011;62745;51.060;13.786;2024-01-11T08:55:08;18.23;;;8.63;;
74328;SDS011;62745;51.060;13.786;2024-01-11T08:57:33;22.63;;;9.65;;
74328;SDS011;62745;51.060;13.786;2024-01-11T09:00:01;24.55;;;10.55;;
74328;SDS011;62745;51.060;13.786;2024-01-11T09:02:27;24.30;;;11.00;;
74328;SDS011;62745;51.060;13.786;2024-01-11T09:04:52;23.30;;;11.10;;
74328;SDS011;62745;51.060;13.786;2024-01-11T09:07:17;22.50;;;10.10;;
74328;SDS011;62745;51.060;13.786;2024-01-11T09:09:43;23.90;;;10.10;;
74328;SDS011;62745;51.060;13.786;2024-01-11T09:12:09;21.90;;;10.52;;
74328;SDS011;62745;51.060;13.786;2024-01-11T09:14:34;21.02;;;9.98;;
74328;SDS011;62745;51.060;13.786;2024-01-11T09:16:59;17.97;;;9.13;;
74328;SDS011;62745;51.060;13.786;2024-01-11T09:19:24;24.97;;;10.43;;
74328;SDS011;62745;51.060;13.786;2024-01-11T09:21:50;29.08;;;12.10;;
74328;SDS011;62745;51.060;13.786;2024-01-11T09:24:15;29.20;;;14.03;;
74328;SDS011;62745;51.060;13.786;2024-01-11T09:26:40;31.63;;;13.57;;
74328;SDS011;62745;51.060;13.786;2024-01-11T09:29:06;34.57;;;14.53;;
74328;SDS011;62745;51.060;13.786;2024-01-11T09:31:31;33.47;;;15.90;;
74328;SDS011;62745;51.060;13.786;2024-01-11T09:33:56;33.57;;;13.77;;
74328;SDS011;62745;51.060;13.786;2024-01-11T09:36:22;36.05;;;13.82;;
74328;SDS011;62745;51.060;13.786;2024-01-11T09:38:47;31.23;;;16.00;;
74328;SDS011;62745;51.060;13.786;2024-01-11T09:41:13;33.25;;;14.88;;
74328;SDS011;62745;51.060;13.786;2024-01-11T09:43:40;30.07;;;14.57;;
74328;SDS011;62745;51.060;13.786;2024-01-11T09:46:07;34.33;;;13.95;;
74328;SDS011;62745;51.060;13.786;2024-01-11T09:48:35;37.85;;;15.93;;
74328;SDS011;62745;51.060;13.786;2024-01-11T09:51:02;32.90;;;15.27;;
74328;SDS011;62745;51.060;13.786;2024-01-11T09:53:29;42.10;;;18.08;;
74328;SDS011;62745;51.060;13.786;2024-01-11T09:55:57;39.13;;;17.77;;
74328;SDS011;62745;51.060;13.786;2024-01-11T09:58:23;38.65;;;17.52;;
74328;SDS011;62745;51.060;13.786;2024-01-11T10:00:49;40.83;;;18.92;;
74328;SDS011;62745;51.060;13.786;2024-01-11T10:03:19;41.88;;;19.10;;
74328;SDS011;62745;51.060;13.786;2024-01-11T10:05:46;38.08;;;18.90;;
74328;SDS011;62745;51.060;13.786;2024-01-11T10:08:14;36.55;;;17.23;;
74328;SDS011;62745;51.060;13.786;2024-01-11T10:10:39;46.92;;;20.33;;
74328;SDS011;62745;51.060;13.786;2024-01-11T10:13:05;38.23;;;18.73;;
74328;SDS011;62745;51.060;13.786;2024-01-11T10:15:30;44.33;;;20.50;;
74328;SDS011;62745;51.060;13.786;2024-01-11T10:17:56;42.80;;;18.85;;
74328;SDS011;62745;51.060;13.786;2024-01-11T10:20:24;44.85;;;18.60;;
74328;SDS011;62745;51.060;13.786;2024-01-11T10:22:49;45.50;;;19.30;;
74328;SDS011;62745;51.060;13.786;2024-01-11T10:25:17;43.75;;;20.10;;
74328;SDS011;62745;51.060;13.786;2024-01-11T10:27:43;38.05;;;17.77;;
74328;SDS011;62745;51.060;13.786;2024-01-11T10:30:10;38.65;;;18.70;;
74328;SDS011;62745;51.060;13.786;2024-01-11T10:32:45;49.58;;;19.63;;
74328;SDS011;62745;51.060;13.786;2024-01-11T10:35:12;42.28;;;19.38;;
74328;SDS011;62745;51.060;13.786;2024-01-11T10:37:37;41.05;;;18.70;;
74328;SDS011;62745;51.060;13.786;2024-01-11T10:40:07;48.33;;;20.45;;
74328;SDS011;62745;51.060;13.786;2024-01-11T10:42:43;43.47;;;19.08;;
74328;SDS011;62745;51.060;13.786;2024-01-11T10:45:12;38.42;;;18.20;;
74328;SDS011;62745;51.060;13.786;2024-01-11T10:47:40;48.97;;;20.15;;
74328;SDS011;62745;51.060;13.786;2024-01-11T10:50:15;41.78;;;16.63;;
74328;SDS011;62745;51.060;13.786;2024-01-11T10:52:42;47.80;;;21.42;;
74328;SDS011;62745;51.060;13.786;2024-01-11T10:55:19;45.90;;;20.33;;
74328;SDS011;62745;51.060;13.786;2024-01-11T10:57:46;43.15;;;20.08;;
74328;SDS011;62745;51.060;13.786;2024-01-11T11:00:13;45.58;;;18.95;;
74328;SDS011;62745;51.060;13.786;2024-01-11T11:02:39;44.50;;;19.88;;
74328;SDS011;62745;51.060;13.786;2024-01-11T11:05:06;47.58;;;21.42;;
74328;SDS011;62745;51.060;13.786;2024-01-11T11:07:34;47.47;;;20.70;;
74328;SDS011;62745;51.060;13.786;2024-01-11T11:10:01;53.63;;;21.95;;
74328;SDS011;62745;51.060;13.786;2024-01-11T11:12:29;43.83;;;19.10;;
74328;SDS011;62745;51.060;13.786;2024-01-11T11:14:57;45.63;;;19.30;;
74328;SDS011;62745;51.060;13.786;2024-01-11T11:17:24;46.28;;;21.27;;
74328;SDS011;62745;51.060;13.786;2024-01-11T11:19:50;51.13;;;21.95;;
74328;SDS011;62745;51.060;13.786;2024-01-11T11:22:17;46.83;;;21.75;;
74328;SDS011;62745;51.060;13.786;2024-01-11T11:24:44;45.80;;;20.95;;
74328;SDS011;62745;51.060;13.786;2024-01-11T11:27:12;45.40;;;20.52;;
74328;SDS011;62745;51.060;13.786;2024-01-11T11:29:39;52.47;;;20.27;;
74328;SDS011;62745;51.060;13.786;2024-01-11T11:32:06;47.33;;;20.80;;
74328;SDS011;62745;51.060;13.786;2024-01-11T11:34:43;41.15;;;16.02;;
74328;SDS011;62745;51.060;13.786;2024-01-11T11:37:12;41.30;;;18.15;;
74328;SDS011;62745;51.060;13.786;2024-01-11T11:39:37;42.20;;;19.90;;
74328;SDS011;62745;51.060;13.786;2024-01-11T11:42:06;44.55;;;20.60;;
74328;SDS011;62745;51.060;13.786;2024-01-11T11:44:32;44.50;;;20.23;;
74328;SDS011;62745;51.060;13.786;2024-01-11T11:52:33;45.85;;;19.75;;
74328;SDS011;62745;51.060;13.786;2024-01-11T11:55:00;41.30;;;17.95;;
74328;SDS011;62745;51.060;13.786;2024-01-11T11:57:27;42.78;;;19.30;;
74328;SDS011;62745;51.060;13.786;2024-01-11T11:59:54;39.40;;;19.27;;
74328;SDS011;62745;51.060;13.786;2024-01-11T12:02:22;40.65;;;17.33;;
74328;SDS011;62745;51.060;13.786;2024-01-11T12:04:49;38.25;;;17.70;;
74328;SDS011;62745;51.060;13.786;2024-01-11T12:07:15;40.38;;;16.48;;
74328;SDS011;62745;51.060;13.786;2024-01-11T12:09:41;44.83;;;19.23;;
74328;SDS011;62745;51.060;13.786;2024-01-11T12:12:07;45.22;;;18.92;;
74328;SDS011;62745;51.060;13.786;2024-01-11T12:14:33;45.03;;;20.48;;
74328;SDS011;62745;51.060;13.786;2024-01-11T12:16:59;41.50;;;18.00;;
74328;SDS011;62745;51.060;13.786;2024-01-11T12:19:25;39.50;;;19.23;;
74328;SDS011;62745;51.060;13.786;2024-01-11T12:21:51;38.67;;;17.98;;
74328;SDS011;62745;51.060;13.786;2024-01-11T12:24:16;40.08;;;17.80;;
74328;SDS011;62745;51.060;13.786;2024-01-11T12:26:42;43.53;;;18.15;;
74328;SDS011;62745;51.060;13.786;2024-01-11T12:29:08;35.63;;;17.45;;
74328;SDS011;62745;51.060;13.786;2024-01-11T12:31:34;39.15;;;17.70;;
74328;SDS011;62745;51.060;13.786;2024-01-11T12:34:00;41.03;;;17.45;;
74328;SDS011;62745;51.060;13.786;2024-01-11T12:36:26;46.55;;;19.02;;
74328;SDS011;62745;51.060;13.786;2024-01-11T12:38:51;45.95;;;21.45;;
74328;SDS011;62745;51.060;13.786;2024-01-11T12:41:17;46.88;;;20.20;;
74328;SDS011;62745;51.060;13.786;2024-01-11T12:43:44;39.75;;;17.85;;
74328;SDS011;62745;51.060;13.786;2024-01-11T12:46:09;42.17;;;18.25;;
74328;SDS011;62745;51.060;13.786;2024-01-11T12:48:35;42.72;;;19.08;;
74328;SDS011;62745;51.060;13.786;2024-01-11T12:51:00;49.03;;;20.07;;
74328;SDS011;62745;51.060;13.786;2024-01-11T12:53:25;42.13;;;19.30;;
74328;SDS011;62745;51.060;13.786;2024-01-11T12:56:04;42.10;;;19.83;;
74328;SDS011;62745;51.060;13.786;2024-01-11T12:58:38;44.00;;;19.05;;
74328;SDS011;62745;51.060;13.786;2024-01-11T13:01:07;45.75;;;18.17;;
74328;SDS011;62745;51.060;13.786;2024-01-11T13:03:33;44.58;;;19.58;;
74328;SDS011;62745;51.060;13.786;2024-01-11T13:05:59;44.17;;;17.60;;
74328;SDS011;62745;51.060;13.786;2024-01-11T13:08:25;42.53;;;17.35;;
74328;SDS011;62745;51.060;13.786;2024-01-11T13:10:52;45.67;;;18.40;;
74328;SDS011;62745;51.060;13.786;2024-01-11T13:13:17;39.83;;;16.88;;
74328;SDS011;62745;51.060;13.786;2024-01-11T13:15:43;40.70;;;18.95;;
74328;SDS011;62745;51.060;13.786;2024-01-11T13:18:08;37.72;;;16.95;;
74328;SDS011;62745;51.060;13.786;2024-01-11T13:20:34;43.92;;;19.67;;
74328;SDS011;62745;51.060;13.786;2024-01-11T13:23:12;38.70;;;17.13;;
74328;SDS011;62745;51.060;13.786;2024-01-11T13:25:43;39.05;;;17.02;;
74328;SDS011;62745;51.060;13.786;2024-01-11T13:28:09;42.47;;;19.02;;
74328;SDS011;62745;51.060;13.786;2024-01-11T13:30:36;40.67;;;17.85;;
74328;SDS011;62745;51.060;13.786;2024-01-11T13:33:06;45.83;;;17.92;;
74328;SDS011;62745;51.060;13.786;2024-01-11T13:35:35;43.55;;;17.70;;
74328;SDS011;62745;51.060;13.786;2024-01-11T13:38:02;36.67;;;17.88;;
74328;SDS011;62745;51.060;13.786;2024-01-11T13:40:31;41.65;;;18.88;;
74328;SDS011;62745;51.060;13.786;2024-01-11T13:42:57;42.85;;;18.85;;
74328;SDS011;62745;51.060;13.786;2024-01-11T13:45:23;43.25;;;18.45;;
74328;SDS011;62745;51.060;13.786;2024-01-11T13:47:49;41.13;;;17.52;;
74328;SDS011;62745;51.060;13.786;2024-01-11T13:50:15;42.97;;;18.25;;
74328;SDS011;62745;51.060;13.786;2024-01-11T13:52:41;42.55;;;17.83;;
74328;SDS011;62745;51.060;13.786;2024-01-11T13:55:07;43.08;;;17.35;;
74328;SDS011;62745;51.060;13.786;2024-01-11T13:57:38;43.72;;;18.48;;
74328;SDS011;62745;51.060;13.786;2024-01-11T14:00:04;41.88;;;17.58;;
74328;SDS011;62745;51.060;13.786;2024-01-11T14:02:30;41.92;;;16.90;;
74328;SDS011;62745;51.060;13.786;2024-01-11T14:04:55;43.22;;;17.73;;
74328;SDS011;62745;51.060;13.786;2024-01-11T14:07:21;39.37;;;16.63;;
74328;SDS011;62745;51.060;13.786;2024-01-11T14:09:46;41.92;;;17.33;;
74328;SDS011;62745;51.060;13.786;2024-01-11T14:12:11;35.90;;;14.97;;
74328;SDS011;62745;51.060;13.786;2024-01-11T14:14:37;38.15;;;16.42;;
74328;SDS011;62745;51.060;13.786;2024-01-11T14:17:02;37.15;;;16.02;;
74328;SDS011;62745;51.060;13.786;2024-01-11T14:19:28;46.97;;;17.60;;